Time;durP1;ratioP1;P1;durP2;ratioP2;P2;SDS_P1;SDS_P2;PMS_P1;PMS_P2;Temp;Humidity;BMP_temperature;BMP_pressure;BME280_temperature;BME280_humidity;BME280_pressure;Samples;Min_cycle;Max_cycle;Signal;HPM_P1;HPM_P2
2022/10/22 00:01:05;;;;;;;;;;;;;;;13.78;58.06;100127.66;4978069;28;20321;-66
2022/10/22 00:03:31;;;;;;;;;;;;;;;13.84;57.84;100123.91;4977885;28;19918;-67
2022/10/22 00:05:56;;;;;;;;;;;;;;;13.84;58.04;100129.19;4976298;28;19922;-66
2022/10/22 00:08:21;;;;;;;;;;;;;;;13.78;58.29;100127.66;4976936;28;19922;-67
2022/10/22 00:10:47;;;;;;;;;;;;;;;13.79;59.37;100122.31;4977270;28;20354;-66
2022/10/22 00:13:12;;;;;;;;;;;;;;;13.82;58.88;100128.41;4978001;28;19914;-66
2022/10/22 00:15:38;;;;;;;;;;;;;;;13.74;59.89;100123.44;4977068;28;20016;-67
2022/10/22 00:18:03;;;;;;;;;;;;;;;13.75;59.72;100122.50;4974614;28;20297;-64
2022/10/22 00:20:28;;;;;;;;;;;;;;;13.77;59.47;100121.53;4977689;28;20456;-67
2022/10/22 00:22:53;;;;;;;;;;;;;;;13.84;59.63;100124.78;4977246;28;20283;-66
2022/10/22 00:25:19;;;;;;;;;;;;;;;13.78;59.24;100125.88;4976360;28;20631;-66
2022/10/22 00:27:44;;;;;;;;;;;;;;;13.69;59.36;100128.03;4976490;28;19933;-66
2022/10/22 00:30:10;;;;;;;;;;;;;;;13.69;58.88;100120.13;4977622;28;19918;-66
2022/10/22 00:32:35;;;;;;;;;;;;;;;13.76;58.61;100124.22;4977599;28;20321;-65
2022/10/22 00:35:00;;;;;;;;;;;;;;;13.69;58.67;100120.13;4976737;28;19930;-66
2022/10/22 00:37:26;;;;;;;;;;;;;;;13.69;58.50;100120.13;4975122;28;19922;-66
2022/10/22 00:39:51;;;;;;;;;;;;;;;13.64;58.75;100122.03;4968167;28;20374;-66
2022/10/22 00:42:21;;;;;;;;;;;;;;;13.68;58.58;100123.66;4981313;28;19961;-65
2022/10/22 00:45:01;;;;;;;;;;;;;;;13.58;58.96;100119.66;4990780;28;19933;-66
2022/10/22 00:47:28;;;;;;;;;;;;;;;13.62;58.76;100113.34;4976176;28;20057;-65
2022/10/22 00:49:54;;;;;;;;;;;;;;;13.64;58.81;100119.41;4975939;28;19918;-65
2022/10/22 00:52:20;;;;;;;;;;;;;;;13.65;58.89;100113.22;4974909;28;19921;-66
2022/10/22 00:54:46;;;;;;;;;;;;;;;13.66;58.76;100109.66;4977160;28;19940;-65
2022/10/22 00:57:11;;;;;;;;;;;;;;;13.66;58.97;100107.03;4974146;28;19928;-66
2022/10/22 00:59:37;;;;;;;;;;;;;;;13.66;58.99;100096.47;4975559;28;19918;-66
2022/10/22 01:02:02;;;;;;;;;;;;;;;13.69;58.93;100101.63;4974857;28;19973;-66
2022/10/22 01:04:28;;;;;;;;;;;;;;;13.69;58.90;100091.94;4976179;28;19921;-66
2022/10/22 01:06:53;;;;;;;;;;;;;;;13.69;59.00;100102.50;4976426;28;19924;-66
2022/10/22 01:09:30;;;;;;;;;;;;;;;13.62;59.17;100094.88;4976178;28;20008;-65
2022/10/22 01:12:02;;;;;;;;;;;;;;;13.62;59.08;100095.72;4976793;28;19914;-65
2022/10/22 01:14:33;;;;;;;;;;;;;;;13.63;59.11;100086.88;4975775;28;20432;-65
2022/10/22 01:17:01;;;;;;;;;;;;;;;14.28;57.45;100088.66;4976553;28;19921;-66
2022/10/22 01:19:27;;;;;;;;;;;;;;;14.36;57.18;100088.31;4974710;28;19973;-67
2022/10/22 01:21:57;;;;;;;;;;;;;;;14.30;57.18;100085.94;4975629;28;19918;-66
2022/10/22 01:24:31;;;;;;;;;;;;;;;13.79;58.58;100079.22;4975467;28;19918;-65
2022/10/22 01:27:15;;;;;;;;;;;;;;;13.72;58.90;100072.44;4976586;28;19914;-66
2022/10/22 01:29:52;;;;;;;;;;;;;;;13.75;58.92;100074.97;4975153;28;19922;-66
2022/10/22 01:32:20;;;;;;;;;;;;;;;13.75;58.95;100081.09;4976056;28;20396;-65
2022/10/22 01:34:51;;;;;;;;;;;;;;;13.76;58.99;100071.41;4975142;28;19975;-65
2022/10/22 01:37:17;;;;;;;;;;;;;;;13.78;58.99;100073.06;4975913;28;19918;-65
2022/10/22 01:39:44;;;;;;;;;;;;;;;13.78;59.03;100075.72;4972765;28;19925;-65
2022/10/22 01:42:11;;;;;;;;;;;;;;;13.72;59.14;100075.09;4975662;28;19925;-66
2022/10/22 01:44:36;;;;;;;;;;;;;;;13.79;59.00;100076.56;4973710;28;20298;-65
2022/10/22 01:47:12;;;;;;;;;;;;;;;14.18;58.18;100074.09;4974126;28;19922;-65
2022/10/22 01:49:55;;;;;;;;;;;;;;;13.86;58.83;100070.13;4973848;28;19953;-66
2022/10/22 01:52:23;;;;;;;;;;;;;;;13.80;59.03;100068.59;4974650;28;19918;-67
2022/10/22 01:54:52;;;;;;;;;;;;;;;13.84;59.00;100064.03;4973295;28;19957;-64
2022/10/22 01:57:36;;;;;;;;;;;;;;;13.75;59.22;100064.41;4972876;28;19922;-66
2022/10/22 02:00:09;;;;;;;;;;;;;;;13.71;59.32;100062.81;4970968;28;19940;-65
2022/10/22 02:02:40;;;;;;;;;;;;;;;13.75;59.34;100056.50;4975559;28;19978;-65
2022/10/22 02:05:08;;;;;;;;;;;;;;;13.95;59.03;100055.69;4974818;28;19922;-66
2022/10/22 02:07:40;;;;;;;;;;;;;;;14.13;58.44;100056.72;4974920;28;19929;-66
2022/10/22 02:10:07;;;;;;;;;;;;;;;14.01;58.85;100050.16;4956217;28;19953;-65
2022/10/22 02:12:34;;;;;;;;;;;;;;;14.18;58.32;100046.81;4967157;28;20289;-67
2022/10/22 02:15:01;;;;;;;;;;;;;;;14.18;58.32;100044.19;4972854;28;19918;-65
2022/10/22 02:17:27;;;;;;;;;;;;;;;14.27;58.21;100046.44;4973244;28;19950;-64
2022/10/22 02:20:08;;;;;;;;;;;;;;;14.27;58.20;100046.44;4966964;28;19922;-65
2022/10/22 02:22:35;;;;;;;;;;;;;;;14.02;58.60;100047.44;4996443;28;19918;-66
2022/10/22 02:25:01;;;;;;;;;;;;;;;13.89;59.35;100058.59;4967184;28;19969;-65
2022/10/22 02:27:32;;;;;;;;;;;;;;;13.86;59.38;100054.28;4973959;28;19918;-64
2022/10/22 02:30:01;;;;;;;;;;;;;;;13.82;59.55;100049.19;4974282;28;19925;-66
2022/10/22 02:32:31;;;;;;;;;;;;;;;13.79;59.70;100047.53;4974481;28;19972;-66
2022/10/22 02:34:58;;;;;;;;;;;;;;;13.76;59.84;100050.28;4975420;28;19937;-65
2022/10/22 02:37:24;;;;;;;;;;;;;;;13.76;59.78;100053.81;4974761;28;19914;-65
2022/10/22 02:39:50;;;;;;;;;;;;;;;13.74;59.92;100054.78;4972496;28;19925;-66
2022/10/22 02:42:17;;;;;;;;;;;;;;;13.78;59.87;100053.72;4983602;28;19996;-65
2022/10/22 02:44:42;;;;;;;;;;;;;;;13.76;59.96;100051.16;4973148;28;19914;-65
2022/10/22 02:47:08;;;;;;;;;;;;;;;13.66;60.05;100046.31;4973683;28;19925;-64
2022/10/22 02:49:33;;;;;;;;;;;;;;;13.60;60.27;100051.81;4975172;28;20017;-67
2022/10/22 02:51:58;;;;;;;;;;;;;;;13.44;60.81;100049.75;4974255;28;20017;-66
2022/10/22 02:54:24;;;;;;;;;;;;;;;13.42;60.88;100043.69;4974111;28;19968;-66
2022/10/22 02:56:49;;;;;;;;;;;;;;;13.43;61.01;100053.31;4974009;28;19932;-64
2022/10/22 02:59:14;;;;;;;;;;;;;;;13.49;60.84;100050.47;4975184;28;19914;-66
2022/10/22 03:01:39;;;;;;;;;;;;;;;13.55;60.79;100050.22;4973498;28;20357;-65
2022/10/22 03:04:05;;;;;;;;;;;;;;;13.59;60.56;100040.41;4975077;28;20105;-66
2022/10/22 03:06:30;;;;;;;;;;;;;;;13.63;60.47;100044.63;4974387;28;19929;-66
2022/10/22 03:08:56;;;;;;;;;;;;;;;13.67;60.41;100035.66;4973688;28;19953;-65
2022/10/22 03:11:21;;;;;;;;;;;;;;;13.69;60.30;100039.13;4974481;28;20364;-65
2022/10/22 03:13:46;;;;;;;;;;;;;;;13.72;60.25;100040.75;4971972;28;19922;-65
2022/10/22 03:16:11;;;;;;;;;;;;;;;13.71;60.18;100041.69;4973444;28;19922;-65
2022/10/22 03:18:37;;;;;;;;;;;;;;;13.74;60.22;100045.06;4972719;28;19925;-66
2022/10/22 03:21:12;;;;;;;;;;;;;;;13.75;60.08;100043.28;4973785;28;19918;-66
2022/10/22 03:23:39;;;;;;;;;;;;;;;13.86;59.96;100049.00;4971000;28;20302;-63
2022/10/22 03:26:04;;;;;;;;;;;;;;;13.97;59.62;100056.50;4973918;28;20012;-65
2022/10/22 03:28:30;;;;;;;;;;;;;;;13.88;59.86;100060.34;4974007;28;20383;-65
2022/10/22 03:30:55;;;;;;;;;;;;;;;14.11;59.34;100071.78;4974258;28;19925;-65
2022/10/22 03:33:20;;;;;;;;;;;;;;;13.80;60.15;100067.72;4972856;28;19929;-66
2022/10/22 03:35:46;;;;;;;;;;;;;;;13.75;60.60;100073.19;4974346;28;19921;-65
2022/10/22 03:38:12;;;;;;;;;;;;;;;13.71;60.79;100073.38;4974378;28;20445;-65
2022/10/22 03:40:37;;;;;;;;;;;;;;;13.71;60.54;100071.59;4974567;28;19922;-66
2022/10/22 03:43:03;;;;;;;;;;;;;;;13.81;60.67;100072.09;4974671;28;20331;-67
2022/10/22 03:45:28;;;;;;;;;;;;;;;13.67;60.92;100074.41;4973552;28;19929;-65
2022/10/22 03:47:53;;;;;;;;;;;;;;;13.61;61.25;100066.75;4973619;28;19922;-65
2022/10/22 03:50:19;;;;;;;;;;;;;;;13.61;61.06;100061.47;4974929;28;20362;-65
2022/10/22 03:52:44;;;;;;;;;;;;;;;13.60;61.08;100051.81;4974830;28;19977;-64
2022/10/22 03:55:09;;;;;;;;;;;;;;;13.49;61.42;100052.25;4973722;28;20290;-65
2022/10/22 03:57:34;;;;;;;;;;;;;;;13.29;61.73;100053.88;4973273;28;20005;-66
2022/10/22 04:00:00;;;;;;;;;;;;;;;13.13;62.25;100057.97;4973711;28;19926;-65
2022/10/22 04:02:25;;;;;;;;;;;;;;;13.06;62.50;100064.38;4973511;28;20275;-65
2022/10/22 04:04:50;;;;;;;;;;;;;;;13.15;62.37;100071.09;4973658;28;19961;-64
2022/10/22 04:07:16;;;;;;;;;;;;;;;13.02;62.86;100074.19;4973883;28;19918;-65
2022/10/22 04:09:41;;;;;;;;;;;;;;;12.99;62.90;100074.28;4974528;28;19914;-65
2022/10/22 04:12:08;;;;;;;;;;;;;;;12.97;62.93;100081.41;4974069;28;20374;-65
2022/10/22 04:14:34;;;;;;;;;;;;;;;12.97;63.14;100085.84;4977668;28;19917;-65
2022/10/22 04:16:59;;;;;;;;;;;;;;;13.03;62.99;100080.31;4976298;28;19918;-65
2022/10/22 04:19:24;;;;;;;;;;;;;;;13.11;62.69;100080.03;4978264;28;19914;-65
2022/10/22 04:21:49;;;;;;;;;;;;;;;13.18;62.75;100078.91;4977448;28;19922;-64
2022/10/22 04:24:15;;;;;;;;;;;;;;;13.23;62.62;100080.47;4975960;28;19922;-65
2022/10/22 04:26:40;;;;;;;;;;;;;;;13.32;62.71;100071.34;4975760;28;20106;-67
2022/10/22 04:29:06;;;;;;;;;;;;;;;13.32;62.56;100071.34;4977825;28;19914;-65
2022/10/22 04:31:31;;;;;;;;;;;;;;;13.36;62.39;100067.66;4977848;28;19914;-66
2022/10/22 04:33:58;;;;;;;;;;;;;;;13.45;62.12;100061.22;4977658;28;20360;-65
2022/10/22 04:36:24;;;;;;;;;;;;;;;13.46;62.20;100047.94;4977721;28;19914;-66
2022/10/22 04:38:54;;;;;;;;;;;;;;;13.55;61.71;100039.66;4976582;28;19925;-67
2022/10/22 04:41:21;;;;;;;;;;;;;;;13.60;61.69;100031.56;4976981;28;19924;-66
2022/10/22 04:43:47;;;;;;;;;;;;;;;13.63;61.57;100027.94;4976992;28;19917;-64
2022/10/22 04:46:14;;;;;;;;;;;;;;;13.65;61.44;100020.84;4976397;28;19929;-64
2022/10/22 04:48:40;;;;;;;;;;;;;;;13.63;61.62;100023.50;4976025;28;19925;-65
2022/10/22 04:51:07;;;;;;;;;;;;;;;13.68;61.40;100025.97;4975808;28;19922;-65
2022/10/22 04:53:34;;;;;;;;;;;;;;;13.72;61.37;100033.72;4976590;28;20301;-67
2022/10/22 04:56:26;;;;;;;;;;;;;;;13.72;61.27;100024.91;4976931;28;20390;-66
2022/10/22 04:58:56;;;;;;;;;;;;;;;13.72;61.35;100032.84;4973210;28;19984;-65
2022/10/22 05:01:26;;;;;;;;;;;;;;;13.72;61.33;100035.47;4977155;28;20041;-66
2022/10/22 05:03:53;;;;;;;;;;;;;;;13.64;61.96;100034.94;4975828;28;19914;-64
2022/10/22 05:06:19;;;;;;;;;;;;;;;13.52;62.48;100031.88;5007868;28;19957;-64
2022/10/22 05:08:45;;;;;;;;;;;;;;;13.51;62.17;100024.84;4977151;28;19925;-63
2022/10/22 05:11:15;;;;;;;;;;;;;;;13.50;62.32;100025.78;4976399;28;19921;-66
2022/10/22 05:13:40;;;;;;;;;;;;;;;13.57;62.05;100025.56;4976896;28;19922;-66
2022/10/22 05:16:05;;;;;;;;;;;;;;;13.60;61.94;100028.91;4975378;28;19918;-65
2022/10/22 05:18:33;;;;;;;;;;;;;;;13.68;61.77;100028.59;4976431;28;19972;-66
2022/10/22 05:20:58;;;;;;;;;;;;;;;13.77;61.53;100031.75;4975840;28;20021;-67
2022/10/22 05:23:23;;;;;;;;;;;;;;;13.88;61.21;100039.22;4974474;28;19922;-66
2022/10/22 05:25:48;;;;;;;;;;;;;;;13.94;61.19;100035.50;4976086;28;19949;-66
2022/10/22 05:28:14;;;;;;;;;;;;;;;13.87;61.64;100032.22;4975356;28;19918;-66
2022/10/22 05:30:39;;;;;;;;;;;;;;;13.84;61.56;100034.13;4973653;28;19966;-63
2022/10/22 05:33:04;;;;;;;;;;;;;;;13.88;61.59;100035.72;4974115;28;20457;-66
2022/10/22 05:35:29;;;;;;;;;;;;;;;13.71;62.32;100041.69;4976887;28;19922;-66
2022/10/22 05:37:55;;;;;;;;;;;;;;;13.77;61.93;100042.31;4973727;28;19918;-65
2022/10/22 05:40:20;;;;;;;;;;;;;;;13.76;62.07;100050.28;4974598;28;19926;-66
2022/10/22 05:42:45;;;;;;;;;;;;;;;13.80;61.96;100047.47;4974727;28;20395;-65
2022/10/22 05:45:11;;;;;;;;;;;;;;;13.91;61.60;100065.50;4974050;28;19922;-66
2022/10/22 05:47:36;;;;;;;;;;;;;;;14.01;61.46;100060.75;4974566;28;19922;-64
2022/10/22 05:50:01;;;;;;;;;;;;;;;14.09;61.13;100068.34;4974505;28;19951;-65
2022/10/22 05:52:27;;;;;;;;;;;;;;;14.17;60.84;100067.09;4970128;28;20330;-65
2022/10/22 05:54:52;;;;;;;;;;;;;;;14.20;60.88;100071.38;4973685;28;20334;-65
2022/10/22 05:57:17;;;;;;;;;;;;;;;14.23;60.80;100071.25;4975513;28;20012;-66
2022/10/22 05:59:43;;;;;;;;;;;;;;;14.28;60.65;100064.88;4979287;28;20001;-65
2022/10/22 06:02:08;;;;;;;;;;;;;;;14.35;60.47;100069.91;4974807;28;20417;-66
2022/10/22 06:04:34;;;;;;;;;;;;;;;14.39;60.55;100066.19;4974590;28;20016;-66
2022/10/22 06:06:59;;;;;;;;;;;;;;;14.40;60.57;100071.44;4976061;28;19918;-65
2022/10/22 06:09:34;;;;;;;;;;;;;;;14.43;60.54;100071.28;4978713;28;19918;-65
2022/10/22 06:11:59;;;;;;;;;;;;;;;14.38;60.76;100078.56;4975595;28;19925;-65
2022/10/22 06:14:25;;;;;;;;;;;;;;;14.38;60.76;100083.84;4974128;28;19918;-64
2022/10/22 06:16:50;;;;;;;;;;;;;;;14.35;61.11;100086.59;4974317;28;19976;-64
2022/10/22 06:19:16;;;;;;;;;;;;;;;14.36;61.25;100085.69;4974989;28;19957;-65
2022/10/22 06:21:42;;;;;;;;;;;;;;;14.34;61.17;100092.81;4973052;28;20636;-64
2022/10/22 06:24:08;;;;;;;;;;;;;;;14.32;61.43;100096.44;4971009;28;19921;-64
2022/10/22 06:26:33;;;;;;;;;;;;;;;14.24;61.69;100091.47;4977666;28;19914;-66
2022/10/22 06:28:59;;;;;;;;;;;;;;;14.21;61.85;100083.69;4974730;28;19918;-66
2022/10/22 06:31:24;;;;;;;;;;;;;;;14.22;61.82;100086.25;4974044;28;19914;-65
2022/10/22 06:33:50;;;;;;;;;;;;;;;14.22;62.08;100074.84;4975302;28;19918;-66
2022/10/22 06:36:17;;;;;;;;;;;;;;;14.25;62.26;100074.72;4975183;28;20238;-66
2022/10/22 06:38:42;;;;;;;;;;;;;;;14.35;61.96;100067.25;4975375;28;19914;-67
2022/10/22 06:41:15;;;;;;;;;;;;;;;14.43;61.63;100073.94;4974216;28;19925;-66
2022/10/22 06:43:44;;;;;;;;;;;;;;;14.35;61.97;100076.03;4974774;28;20325;-66
2022/10/22 06:46:10;;;;;;;;;;;;;;;14.36;61.80;100083.03;4972472;28;20057;-67
2022/10/22 06:48:36;;;;;;;;;;;;;;;14.38;61.77;100094.41;4975148;28;20016;-67
2022/10/22 06:51:03;;;;;;;;;;;;;;;14.21;62.25;100089.84;4975389;28;19918;-66
2022/10/22 06:53:28;;;;;;;;;;;;;;;14.26;62.29;100089.66;4975233;28;20001;-67
2022/10/22 06:55:53;;;;;;;;;;;;;;;14.33;62.37;100099.03;4975173;28;20005;-67
2022/10/22 06:58:19;;;;;;;;;;;;;;;14.47;62.07;100104.59;4975386;28;19914;-66
2022/10/22 07:00:44;;;;;;;;;;;;;;;14.56;61.85;100107.81;4974955;28;19922;-66
2022/10/22 07:03:12;;;;;;;;;;;;;;;14.59;61.66;100111.19;4975061;28;20008;-66
2022/10/22 07:05:38;;;;;;;;;;;;;;;14.68;61.72;100112.56;4973274;28;19957;-65
2022/10/22 07:08:03;;;;;;;;;;;;;;;14.72;61.59;100107.13;4974555;28;19961;-66
2022/10/22 07:10:29;;;;;;;;;;;;;;;14.68;61.53;100115.22;4974720;28;20278;-66
2022/10/22 07:12:54;;;;;;;;;;;;;;;14.68;61.88;100110.81;4974609;28;19932;-67
2022/10/22 07:15:19;;;;;;;;;;;;;;;14.80;62.48;100109.41;4975038;28;20273;-67
2022/10/22 07:17:44;;;;;;;;;;;;;;;14.87;61.98;100099.41;4974892;28;19950;-67
2022/10/22 07:20:11;;;;;;;;;;;;;;;14.98;61.93;100095.38;4975218;28;19929;-67
2022/10/22 07:22:36;;;;;;;;;;;;;;;15.12;61.44;100105.38;4974702;28;19918;-67
2022/10/22 07:25:02;;;;;;;;;;;;;;;15.24;61.02;100114.50;4976418;28;20028;-67
2022/10/22 07:27:27;;;;;;;;;;;;;;;15.34;60.82;100110.53;4974483;28;19921;-67
2022/10/22 07:29:52;;;;;;;;;;;;;;;15.45;60.36;100100.31;4974477;28;20013;-67
2022/10/22 07:32:17;;;;;;;;;;;;;;;15.49;60.13;100112.50;4968527;28;19969;-67
2022/10/22 07:34:43;;;;;;;;;;;;;;;15.50;60.38;100116.00;4955559;28;19918;-66
2022/10/22 07:37:08;;;;;;;;;;;;;;;15.56;60.28;100109.53;4955113;29;19940;-67
2022/10/22 07:39:33;;;;;;;;;;;;;;;16.05;59.01;100112.56;4967640;28;19919;-66
2022/10/22 07:41:59;;;;;;;;;;;;;;;15.76;59.50;100112.16;4974367;28;19965;-65
2022/10/22 07:44:24;;;;;;;;;;;;;;;15.74;59.77;100114.03;4974558;28;19914;-66
2022/10/22 07:46:49;;;;;;;;;;;;;;;15.71;59.82;100111.50;4975280;28;19921;-66
2022/10/22 07:49:14;;;;;;;;;;;;;;;15.82;59.75;100111.88;4978229;28;19922;-66
2022/10/22 07:51:40;;;;;;;;;;;;;;;15.90;59.54;100108.84;4977941;28;20389;-66
2022/10/22 07:54:05;;;;;;;;;;;;;;;15.95;59.43;100097.09;4978402;28;19918;-66
2022/10/22 07:56:30;;;;;;;;;;;;;;;15.93;59.77;100098.97;4978102;28;19926;-65
2022/10/22 07:58:56;;;;;;;;;;;;;;;16.01;59.58;100096.81;4977808;28;19928;-66
2022/10/22 08:01:21;;;;;;;;;;;;;;;16.14;59.67;100088.25;4977339;28;19918;-67
2022/10/22 08:03:47;;;;;;;;;;;;;;;16.16;59.88;100094.34;4976746;28;19928;-65
2022/10/22 08:06:13;;;;;;;;;;;;;;;16.10;60.36;100095.50;4978286;28;20370;-66
2022/10/22 08:08:38;;;;;;;;;;;;;;;16.16;59.65;100094.34;4990152;28;19933;-66
2022/10/22 08:11:04;;;;;;;;;;;;;;;16.29;59.41;100091.94;4979953;28;19921;-66
2022/10/22 08:13:29;;;;;;;;;;;;;;;16.26;59.60;100090.28;4977627;28;19925;-66
2022/10/22 08:15:55;;;;;;;;;;;;;;;16.22;59.54;100096.69;4977110;28;20009;-67
2022/10/22 08:18:21;;;;;;;;;;;;;;;16.14;60.16;100109.47;4978088;28;19924;-67
2022/10/22 08:20:46;;;;;;;;;;;;;;;16.07;60.45;100113.34;4978072;28;19914;-66
2022/10/22 08:23:11;;;;;;;;;;;;;;;16.03;61.38;100109.97;4978111;28;19953;-67
2022/10/22 08:25:37;;;;;;;;;;;;;;;16.07;60.49;100110.69;4977990;28;19925;-67
2022/10/22 08:28:02;;;;;;;;;;;;;;;16.00;60.80;100113.66;4977937;28;19972;-67
2022/10/22 08:30:28;;;;;;;;;;;;;;;15.94;61.00;100123.66;4978185;28;19918;-67
2022/10/22 08:32:54;;;;;;;;;;;;;;;15.95;61.04;100123.59;4977707;28;20385;-68
2022/10/22 08:35:19;;;;;;;;;;;;;;;15.85;61.38;100121.47;4977954;28;19957;-66
2022/10/22 08:37:44;;;;;;;;;;;;;;;15.88;61.49;100119.53;4977262;28;19922;-65
2022/10/22 08:40:18;;;;;;;;;;;;;;;15.87;61.31;100119.59;4977614;28;20394;-67
2022/10/22 08:42:53;;;;;;;;;;;;;;;15.81;61.55;100112.81;4971454;28;19939;-66
2022/10/22 08:45:19;;;;;;;;;;;;;;;15.88;61.48;100116.88;4995556;28;19922;-66
2022/10/22 08:47:53;;;;;;;;;;;;;;;15.93;61.33;100108.72;4996322;28;20020;-66
2022/10/22 08:50:23;;;;;;;;;;;;;;;16.00;61.40;100111.00;4996935;28;19917;-67
2022/10/22 08:52:50;;;;;;;;;;;;;;;16.21;61.08;100103.78;4997083;28;19914;-66
2022/10/22 08:55:23;;;;;;;;;;;;;;;16.42;60.71;100112.47;4996704;28;19914;-67
2022/10/22 08:58:19;;;;;;;;;;;;;;;16.54;60.63;100104.81;4996548;28;19920;-67
2022/10/22 09:01:03;;;;;;;;;;;;;;;16.62;60.16;100113.25;4960884;28;20382;-66
2022/10/22 09:03:28;;;;;;;;;;;;;;;16.44;60.63;100125.66;4996399;28;20263;-66
2022/10/22 09:06:08;;;;;;;;;;;;;;;16.30;61.32;100118.38;4996667;28;19941;-66
2022/10/22 09:08:35;;;;;;;;;;;;;;;16.24;61.20;100124.00;4995591;28;20276;-67
2022/10/22 09:11:14;;;;;;;;;;;;;;;16.22;61.38;100118.75;4996510;28;19913;-67
2022/10/22 09:13:41;;;;;;;;;;;;;;;16.16;62.02;100131.47;4996448;28;19953;-66
2022/10/22 09:16:32;;;;;;;;;;;;;;;16.14;61.72;100135.97;4996441;28;20012;-66
2022/10/22 09:18:57;;;;;;;;;;;;;;;16.21;61.59;100140.03;4980726;28;19913;-66
2022/10/22 09:21:32;;;;;;;;;;;;;;;16.15;62.13;100129.72;4995139;28;19920;-67
2022/10/22 09:24:03;;;;;;;;;;;;;;;16.19;61.83;100136.59;4996183;28;19914;-67
2022/10/22 09:26:30;;;;;;;;;;;;;;;16.21;61.93;100140.03;4996287;28;19913;-66
2022/10/22 09:28:58;;;;;;;;;;;;;;;16.65;60.97;100139.63;4996570;28;19914;-67
2022/10/22 09:31:25;;;;;;;;;;;;;;;16.62;60.96;100139.78;4996094;28;19913;-67
2022/10/22 09:33:51;;;;;;;;;;;;;;;16.81;60.52;100137.94;4996027;28;19914;-67
2022/10/22 09:36:17;;;;;;;;;;;;;;;16.73;60.24;100138.34;4996031;28;20444;-67
2022/10/22 09:38:49;;;;;;;;;;;;;;;16.75;60.28;100135.59;4996017;28;19914;-65
2022/10/22 09:41:15;;;;;;;;;;;;;;;16.85;60.45;100138.66;4996015;28;19918;-67
2022/10/22 09:43:40;;;;;;;;;;;;;;;17.12;59.64;100131.06;4995691;28;20283;-68
2022/10/22 09:46:07;;;;;;;;;;;;;;;17.17;59.50;100129.88;4995800;28;19929;-67
2022/10/22 09:48:34;;;;;;;;;;;;;;;17.27;59.32;100114.28;4995455;28;19917;-67
2022/10/22 09:51:02;;;;;;;;;;;;;;;17.27;59.55;100111.63;4995653;28;19913;-68
2022/10/22 09:53:28;;;;;;;;;;;;;;;17.42;58.95;100121.44;4995544;28;19913;-68
2022/10/22 09:55:56;;;;;;;;;;;;;;;17.38;59.09;100117.22;4995767;28;20008;-66
2022/10/22 09:58:21;;;;;;;;;;;;;;;17.38;59.57;100114.56;4996001;28;19920;-68
2022/10/22 10:00:49;;;;;;;;;;;;;;;17.45;59.53;100117.78;4995429;28;19918;-67
2022/10/22 10:03:19;;;;;;;;;;;;;;;17.22;60.25;100116.34;4995691;28;19914;-67
2022/10/22 10:05:48;;;;;;;;;;;;;;;17.42;59.66;100115.28;4995415;28;19928;-66
2022/10/22 10:08:15;;;;;;;;;;;;;;;17.56;59.51;100117.19;4995480;28;19945;-66
2022/10/22 10:11:03;;;;;;;;;;;;;;;17.66;58.97;100110.41;4995146;28;19984;-67
2022/10/22 10:13:42;;;;;;;;;;;;;;;17.45;59.65;100113.31;4995675;28;19913;-67
2022/10/22 10:16:07;;;;;;;;;;;;;;;17.43;59.81;100112.56;4995353;28;20401;-65
2022/10/22 10:18:38;;;;;;;;;;;;;;;16.83;61.48;100113.97;4995286;28;19968;-67
2022/10/22 10:21:16;;;;;;;;;;;;;;;17.27;60.78;100114.28;4995007;28;19914;-67
2022/10/22 10:24:00;;;;;;;;;;;;;;;17.49;60.23;100114.84;4994055;28;20324;-67
2022/10/22 10:26:28;;;;;;;;;;;;;;;17.62;60.14;100112.38;4995175;28;19917;-68
2022/10/22 10:29:02;;;;;;;;;;;;;;;17.76;59.82;100109.00;4993684;28;19914;-67
2022/10/22 10:31:34;;;;;;;;;;;;;;;18.02;58.95;100096.91;4995555;28;19914;-69
2022/10/22 10:34:31;;;;;;;;;;;;;;;18.07;59.06;100101.94;4995219;28;20445;-68
2022/10/22 10:37:15;;;;;;;;;;;;;;;17.64;59.98;100093.72;4972625;28;19913;-68
2022/10/22 10:39:43;;;;;;;;;;;;;;;17.82;59.77;100103.34;4995318;28;19913;-69
2022/10/22 10:42:20;;;;;;;;;;;;;;;17.91;59.74;100112.59;4994903;28;20282;-68
2022/10/22 10:44:54;;;;;;;;;;;;;;;17.83;60.15;100113.00;4994890;28;19930;-68
2022/10/22 10:47:22;;;;;;;;;;;;;;;17.48;61.22;100109.63;4994423;28;19968;-67
2022/10/22 10:49:50;;;;;;;;;;;;;;;17.57;61.05;100108.28;4994854;28;19925;-67
2022/10/22 10:52:29;;;;;;;;;;;;;;;17.79;60.82;100110.63;4994609;28;19964;-66
2022/10/22 10:55:08;;;;;;;;;;;;;;;17.97;60.02;100118.44;4994983;28;19921;-67
2022/10/22 10:57:54;;;;;;;;;;;;;;;18.20;59.61;100105.63;4994522;28;20329;-68
2022/10/22 11:00:20;;;;;;;;;;;;;;;18.37;59.62;100115.28;4994545;28;19918;-68
2022/10/22 11:02:48;;;;;;;;;;;;;;;18.41;59.45;100111.50;4994605;28;20401;-66
2022/10/22 11:05:14;;;;;;;;;;;;;;;18.61;58.72;100116.50;4992862;28;19914;-66
2022/10/22 11:07:42;;;;;;;;;;;;;;;18.61;58.60;100123.66;4994266;28;19960;-67
2022/10/22 11:10:16;;;;;;;;;;;;;;;18.85;58.07;100116.88;4994465;28;19914;-67
2022/10/22 11:12:47;;;;;;;;;;;;;;;18.90;57.86;100114.81;4978431;28;20066;-67
2022/10/22 11:15:15;;;;;;;;;;;;;;;19.02;57.34;100101.69;4984213;28;19921;-67
2022/10/22 11:17:45;;;;;;;;;;;;;;;19.09;57.16;100113.69;4973572;28;19914;-67
2022/10/22 11:20:16;;;;;;;;;;;;;;;18.91;57.94;100116.53;4973981;28;19914;-68
2022/10/22 11:22:46;;;;;;;;;;;;;;;18.74;58.37;100114.00;4973276;28;20397;-68
2022/10/22 11:25:11;;;;;;;;;;;;;;;18.54;58.95;100116.97;4974801;28;19966;-67
2022/10/22 11:27:46;;;;;;;;;;;;;;;18.67;58.54;100124.16;4974843;28;19945;-68
2022/10/22 11:30:15;;;;;;;;;;;;;;;18.72;58.39;100131.88;4974754;28;20389;-67
2022/10/22 11:32:43;;;;;;;;;;;;;;;18.76;57.16;100122.78;4974697;28;19914;-67
2022/10/22 11:35:12;;;;;;;;;;;;;;;18.71;58.41;100119.50;4974617;28;20370;-68
2022/10/22 11:37:37;;;;;;;;;;;;;;;18.61;58.87;100124.50;4974819;28;20000;-68
2022/10/22 11:40:18;;;;;;;;;;;;;;;18.61;58.84;100123.66;4975123;28;19982;-68
2022/10/22 11:42:46;;;;;;;;;;;;;;;18.37;59.76;100120.63;4970912;28;19918;-66
2022/10/22 11:45:12;;;;;;;;;;;;;;;18.26;59.65;100125.69;4977603;28;20378;-67
2022/10/22 11:47:57;;;;;;;;;;;;;;;18.34;59.97;100121.63;4973283;28;19925;-68
2022/10/22 11:50:24;;;;;;;;;;;;;;;18.37;59.92;100125.94;4974177;28;19914;-68
2022/10/22 11:53:15;;;;;;;;;;;;;;;18.35;59.73;100127.81;4974741;28;19910;-68
2022/10/22 11:55:59;;;;;;;;;;;;;;;18.20;60.80;100124.25;4974461;28;20373;-67
2022/10/22 11:58:28;;;;;;;;;;;;;;;17.95;61.54;100116.78;4974070;28;19910;-68
2022/10/22 12:01:08;;;;;;;;;;;;;;;17.92;61.50;100120.50;4974112;28;20308;-67
2022/10/22 12:03:33;;;;;;;;;;;;;;;18.16;60.21;100126.22;4974621;28;19910;-68
2022/10/22 12:06:11;;;;;;;;;;;;;;;18.28;60.91;100126.47;4974312;28;20004;-68
2022/10/22 12:08:44;;;;;;;;;;;;;;;18.41;60.04;100123.00;4973948;28;19918;-67
2022/10/22 12:11:09;;;;;;;;;;;;;;;18.48;59.68;100118.19;4974411;28;19917;-67
2022/10/22 12:13:57;;;;;;;;;;;;;;;18.37;60.44;100121.47;4973047;28;19970;-67
2022/10/22 12:16:23;;;;;;;;;;;;;;;18.35;60.70;100112.75;4973881;28;19918;-67
2022/10/22 12:18:54;;;;;;;;;;;;;;;18.33;60.97;100117.28;4974152;28;20000;-67
2022/10/22 12:21:19;;;;;;;;;;;;;;;17.89;62.23;100117.16;4974364;28;20366;-67
2022/10/22 12:23:45;;;;;;;;;;;;;;;17.95;61.96;100120.34;4974386;28;19969;-68
2022/10/22 12:26:24;;;;;;;;;;;;;;;18.08;61.83;100115.16;4973104;28;20354;-68
2022/10/22 12:28:50;;;;;;;;;;;;;;;18.23;61.50;100118.72;4974374;28;19924;-68
2022/10/22 12:31:15;;;;;;;;;;;;;;;18.09;62.29;100110.72;4974171;28;20008;-68
2022/10/22 12:33:41;;;;;;;;;;;;;;;18.26;61.42;100113.25;4976162;28;19925;-67
2022/10/22 12:36:06;;;;;;;;;;;;;;;18.27;61.38;100109.63;4977363;28;19925;-68
2022/10/22 12:38:31;;;;;;;;;;;;;;;18.26;61.77;100107.94;4977610;28;20072;-68
2022/10/22 12:40:57;;;;;;;;;;;;;;;18.31;61.66;100105.88;4977243;28;19926;-67